Time;durP1;ratioP1;P1;durP2;ratioP2;P2;SDS_P1;SDS_P2;PMS_P1;PMS_P2;Temp;Humidity;BMP_temperature;BMP_pressure;BME280_temperature;BME280_humidity;BME280_pressure;Samples;Min_cycle;Max_cycle;Signal;HPM_P1;HPM_P2
2021/09/03 00:01:58;;;;;;;;;;;;;;;-144.99;92.54;52407.31;5061053;28;19994;-77
2021/09/03 00:04:25;;;;;;;;;;;;;;;-144.99;93.30;52399.19;5061170;28;19970;-76
2021/09/03 00:06:51;;;;;;;;;;;;;;;-144.99;94.25;52382.88;5062756;28;19980;-76
2021/09/03 00:09:17;;;;;;;;;;;;;;;-144.99;94.59;52407.31;5061736;28;19975;-75
2021/09/03 00:11:45;;;;;;;;;;;;;;;-144.99;94.66;52386.94;5064651;28;19994;-76
2021/09/03 00:14:11;;;;;;;;;;;;;;;-144.99;94.64;52382.88;5066982;28;20367;-76
2021/09/03 00:16:38;;;;;;;;;;;;;;;-144.99;94.96;52362.50;5051888;28;19978;-76
2021/09/03 00:19:04;;;;;;;;;;;;;;;-144.99;95.16;52350.25;5063643;28;19997;-75
2021/09/03 00:21:31;;;;;;;;;;;;;;;-144.99;95.48;52403.25;5062982;28;19994;-76
2021/09/03 00:23:57;;;;;;;;;;;;;;;-144.99;95.78;52391.03;5061159;28;19983;-76
2021/09/03 00:26:23;;;;;;;;;;;;;;;-144.99;95.58;52370.63;5060796;28;19970;-75
2021/09/03 00:28:51;;;;;;;;;;;;;;;-144.99;95.21;52374.72;5062742;28;20448;-76
2021/09/03 00:31:17;;;;;;;;;;;;;;;-144.99;95.13;52356.38;5061962;28;20667;-75
2021/09/03 00:33:44;;;;;;;;;;;;;;;-144.99;95.23;52350.25;5064048;28;20353;-76
2021/09/03 00:36:10;;;;;;;;;;;;;;;-144.99;95.83;52358.41;5061559;28;19975;-76
2021/09/03 00:38:36;;;;;;;;;;;;;;;-144.99;95.89;52358.41;5060240;28;20445;-75
2021/09/03 00:41:03;;;;;;;;;;;;;;;-144.99;96.39;52384.91;5060684;28;20472;-75
2021/09/03 00:43:30;;;;;;;;;;;;;;;-144.99;96.52;52376.75;5062466;28;20135;-76
2021/09/03 00:45:57;;;;;;;;;;;;;;;-144.99;96.59;52419.56;5065598;28;20513;-75
2021/09/03 00:48:24;;;;;;;;;;;;;;;-144.99;96.87;52399.19;5058746;28;19975;-76
2021/09/03 00:50:51;;;;;;;;;;;;;;;-144.99;97.41;52386.94;5060961;28;20438;-76
2021/09/03 00:53:18;;;;;;;;;;;;;;;-144.99;97.84;52370.63;5063246;28;19986;-78
2021/09/03 00:55:44;;;;;;;;;;;;;;;-144.99;97.84;52342.09;5062150;28;20236;-77
2021/09/03 00:58:11;;;;;;;;;;;;;;;-144.99;98.31;52391.03;5064600;28;19990;-77
2021/09/03 01:00:37;;;;;;;;;;;;;;;-144.99;98.96;52370.63;5061253;28;20411;-75
2021/09/03 01:03:05;;;;;;;;;;;;;;;-144.99;99.16;52378.78;5063607;28;20002;-76
2021/09/03 01:05:31;;;;;;;;;;;;;;;-144.99;99.34;52372.69;5061159;28;20421;-76
2021/09/03 01:07:58;;;;;;;;;;;;;;;-144.99;99.52;52362.50;5062157;28;19982;-77
2021/09/03 01:10:24;;;;;;;;;;;;;;;-144.99;99.48;52362.50;5062013;28;19978;-76
2021/09/03 01:12:51;;;;;;;;;;;;;;;-144.99;99.99;52350.25;5060443;28;19996;-77
2021/09/03 01:15:18;;;;;;;;;;;;;;;-144.99;100.00;52384.91;5060077;28;20327;-76
2021/09/03 01:17:44;;;;;;;;;;;;;;;-144.99;100.00;52397.13;5060263;28;19975;-75
2021/09/03 01:20:13;;;;;;;;;;;;;;;-144.99;100.00;52413.44;5056187;28;19971;-76
2021/09/03 01:22:40;;;;;;;;;;;;;;;-144.99;100.00;52409.38;5058486;28;20490;-76
2021/09/03 01:25:08;;;;;;;;;;;;;;;-144.99;100.00;52391.03;5062373;28;19970;-76
2021/09/03 01:27:34;;;;;;;;;;;;;;;-144.99;100.00;52346.19;5063872;28;19974;-76
2021/09/03 01:30:00;;;;;;;;;;;;;;;-144.99;100.00;52370.63;5057913;28;19976;-77
2021/09/03 01:32:27;;;;;;;;;;;;;;;-144.99;100.00;52374.72;5061948;28;19987;-76
2021/09/03 01:34:53;;;;;;;;;;;;;;;-144.99;100.00;52350.25;5060395;28;19982;-77
2021/09/03 01:37:19;;;;;;;;;;;;;;;-144.99;100.00;52413.44;5060641;28;19970;-76
2021/09/03 01:39:47;;;;;;;;;;;;;;;-144.99;100.00;52356.38;5063124;28;19982;-75
2021/09/03 01:42:13;;;;;;;;;;;;;;;-144.99;100.00;52378.78;5063896;28;19990;-75
2021/09/03 01:44:39;;;;;;;;;;;;;;;-144.99;100.00;52386.94;5067254;28;20360;-76
2021/09/03 01:47:06;;;;;;;;;;;;;;;-144.99;100.00;52366.56;5066068;28;19974;-76
2021/09/03 01:49:32;;;;;;;;;;;;;;;-144.99;100.00;52386.94;5065328;28;20016;-76
2021/09/03 01:51:58;;;;;;;;;;;;;;;-144.99;100.00;52419.56;5064563;28;19987;-75
2021/09/03 01:54:25;;;;;;;;;;;;;;;-144.99;100.00;52395.09;5062913;28;19971;-76
2021/09/03 01:56:52;;;;;;;;;;;;;;;-144.99;100.00;52429.75;5064020;28;20467;-76
2021/09/03 01:59:19;;;;;;;;;;;;;;;-144.99;100.00;52350.25;5063920;28;19971;-76
2021/09/03 02:01:45;;;;;;;;;;;;;;;-144.99;100.00;52395.09;5063376;28;19991;-76
2021/09/03 02:04:11;;;;;;;;;;;;;;;-144.99;100.00;52329.88;5069528;28;19979;-76
2021/09/03 02:06:38;;;;;;;;;;;;;;;-144.99;100.00;52386.94;5065432;28;19978;-76
2021/09/03 02:09:04;;;;;;;;;;;;;;;-144.99;100.00;52338.03;5065610;28;19977;-76
2021/09/03 02:11:30;;;;;;;;;;;;;;;-144.99;100.00;52374.72;5069040;28;19992;-77
2021/09/03 02:13:58;;;;;;;;;;;;;;;-144.99;100.00;52382.88;5070682;28;19979;-77
2021/09/03 02:16:24;;;;;;;;;;;;;;;-144.99;100.00;52395.09;5069367;28;19974;-76
2021/09/03 02:18:51;;;;;;;;;;;;;;;-144.99;100.00;52376.75;5070970;28;20430;-77
2021/09/03 02:21:17;;;;;;;;;;;;;;;-144.99;100.00;52407.31;5071047;28;19981;-76
2021/09/03 02:23:43;;;;;;;;;;;;;;;-144.99;100.00;52368.59;5069961;28;19977;-76
2021/09/03 02:26:09;;;;;;;;;;;;;;;-144.99;100.00;52346.19;5066033;28;19976;-76
2021/09/03 02:28:36;;;;;;;;;;;;;;;-144.99;100.00;52364.53;5065491;28;20006;-75
2021/09/03 02:31:03;;;;;;;;;;;;;;;-144.99;100.00;52403.25;5064639;28;20480;-76
2021/09/03 02:33:30;;;;;;;;;;;;;;;-144.99;100.00;52395.09;5067322;28;20143;-76
2021/09/03 02:35:56;;;;;;;;;;;;;;;-144.99;100.00;52403.25;5067415;28;20061;-76
2021/09/03 02:38:22;;;;;;;;;;;;;;;-144.99;100.00;52376.75;5063579;28;19975;-76
2021/09/03 02:40:49;;;;;;;;;;;;;;;-144.99;100.00;52378.78;5065168;28;19972;-76
2021/09/03 02:43:15;;;;;;;;;;;;;;;-144.99;100.00;52329.88;5067287;28;20081;-76
2021/09/03 02:45:41;;;;;;;;;;;;;;;-144.99;100.00;52360.44;5066480;28;19975;-75
2021/09/03 02:48:09;;;;;;;;;;;;;;;-144.99;100.00;52366.56;5066883;28;20464;-76
2021/09/03 02:50:35;;;;;;;;;;;;;;;-144.99;100.00;52358.41;5067733;28;19981;-76
2021/09/03 02:53:02;;;;;;;;;;;;;;;-144.99;100.00;52358.41;5062263;28;20359;-76
2021/09/03 02:55:29;;;;;;;;;;;;;;;-144.99;100.00;52348.22;5067651;28;19971;-76
2021/09/03 02:57:55;;;;;;;;;;;;;;;-144.99;100.00;52358.41;5063285;28;19962;-78
2021/09/03 03:00:22;;;;;;;;;;;;;;;-144.99;100.00;52399.19;5067036;28;20467;-79
2021/09/03 03:02:48;;;;;;;;;;;;;;;-144.99;100.00;52391.03;5065612;28;19993;-78
2021/09/03 03:05:16;;;;;;;;;;;;;;;-144.99;100.00;52391.03;5053226;28;19961;-76
2021/09/03 03:07:42;;;;;;;;;;;;;;;-144.99;100.00;52370.63;5064008;28;19976;-76
2021/09/03 03:10:09;;;;;;;;;;;;;;;-144.99;100.00;52370.63;5063553;28;19982;-76
2021/09/03 03:12:35;;;;;;;;;;;;;;;-144.99;100.00;52358.41;5067648;28;20634;-76
2021/09/03 03:15:02;;;;;;;;;;;;;;;-144.99;100.00;52358.41;5057623;28;19989;-76
2021/09/03 03:17:28;;;;;;;;;;;;;;;-144.99;100.00;52378.78;5063147;28;19972;-76
2021/09/03 03:19:54;;;;;;;;;;;;;;;-144.99;100.00;52362.50;5064651;28;20080;-76
2021/09/03 03:22:22;;;;;;;;;;;;;;;-144.99;100.00;52352.28;5064378;28;19997;-75
2021/09/03 03:24:48;;;;;;;;;;;;;;;-144.99;100.00;52358.41;5059237;28;19975;-75
2021/09/03 03:27:15;;;;;;;;;;;;;;;-144.99;100.00;52382.88;5062642;28;20434;-75
2021/09/03 03:29:41;;;;;;;;;;;;;;;-144.99;100.00;52338.03;5062111;28;19977;-75
2021/09/03 03:32:07;;;;;;;;;;;;;;;-144.99;100.00;52352.28;5061959;28;20001;-75
2021/09/03 03:34:34;;;;;;;;;;;;;;;-144.99;100.00;52366.56;5064183;28;19987;-75
2021/09/03 03:37:00;;;;;;;;;;;;;;;-144.99;100.00;52329.88;5059715;28;20071;-75
2021/09/03 03:39:28;;;;;;;;;;;;;;;-144.99;100.00;52354.34;5061098;28;19976;-75
2021/09/03 03:41:54;;;;;;;;;;;;;;;-144.99;100.00;52362.50;5064209;28;20410;-78
2021/09/03 03:44:21;;;;;;;;;;;;;;;-144.99;100.00;52350.25;5064690;28;20658;-77
2021/09/03 03:46:47;;;;;;;;;;;;;;;-144.99;100.00;52313.56;5063737;28;19960;-77
2021/09/03 03:49:14;;;;;;;;;;;;;;;-144.99;100.00;52378.78;5064038;28;20000;-78
2021/09/03 03:51:40;;;;;;;;;;;;;;;-144.99;100.00;52374.72;5061750;28;20376;-78
2021/09/03 03:54:06;;;;;;;;;;;;;;;-144.99;100.00;52374.72;5063274;28;19991;-76
2021/09/03 03:56:34;;;;;;;;;;;;;;;-144.99;100.00;52382.88;5063176;28;19980;-76
2021/09/03 03:59:00;;;;;;;;;;;;;;;-144.99;100.00;52321.72;5062803;28;19981;-76
2021/09/03 04:01:27;;;;;;;;;;;;;;;-144.99;100.00;52338.03;5060649;28;20000;-76
2021/09/03 04:03:53;;;;;;;;;;;;;;;-144.99;100.00;52333.94;5060251;28;20428;-76
2021/09/03 04:06:19;;;;;;;;;;;;;;;-144.99;100.00;52338.03;5060052;28;19986;-76
2021/09/03 04:08:46;;;;;;;;;;;;;;;-144.99;100.00;52325.81;5056853;28;20312;-76
2021/09/03 04:11:12;;;;;;;;;;;;;;;-144.99;100.00;52354.34;5063099;28;19969;-76
2021/09/03 04:13:40;;;;;;;;;;;;;;;-144.99;100.00;52331.91;5067171;28;20345;-76
2021/09/03 04:16:07;;;;;;;;;;;;;;;-144.99;100.00;52317.66;5065120;28;19981;-76
2021/09/03 04:18:33;;;;;;;;;;;;;;;-144.99;100.00;52319.69;5058349;28;19988;-76
2021/09/03 04:20:59;;;;;;;;;;;;;;;-144.99;100.00;52372.69;5064961;28;20494;-76
2021/09/03 04:23:25;;;;;;;;;;;;;;;-144.99;100.00;52366.56;5055032;28;20004;-76
2021/09/03 04:25:52;;;;;;;;;;;;;;;-144.99;100.00;52366.56;5060038;28;19977;-76
2021/09/03 04:28:18;;;;;;;;;;;;;;;-144.99;100.00;52366.56;5062395;28;19984;-76
2021/09/03 04:30:46;;;;;;;;;;;;;;;-144.99;100.00;52346.19;5057813;28;20417;-76
2021/09/03 04:33:12;;;;;;;;;;;;;;;-144.99;100.00;52350.25;5060373;28;20076;-76
2021/09/03 04:35:38;;;;;;;;;;;;;;;-144.99;100.00;52338.03;5063112;28;20419;-75
2021/09/03 04:38:05;;;;;;;;;;;;;;;-144.99;100.00;52354.34;5060587;28;20033;-75
2021/09/03 04:40:31;;;;;;;;;;;;;;;-144.99;100.00;52374.72;5060033;28;19985;-76
2021/09/03 04:42:57;;;;;;;;;;;;;;;-144.99;100.00;52350.25;5062977;28;20004;-75
2021/09/03 04:45:24;;;;;;;;;;;;;;;-144.99;100.00;52358.41;5062128;28;19977;-76
2021/09/03 04:47:52;;;;;;;;;;;;;;;-144.99;100.00;52382.88;5062744;28;19973;-75
2021/09/03 04:50:18;;;;;;;;;;;;;;;-144.99;100.00;52346.19;5062719;28;20504;-78
2021/09/03 04:52:45;;;;;;;;;;;;;;;-144.99;100.00;52358.41;5059573;28;20295;-75
2021/09/03 04:55:11;;;;;;;;;;;;;;;-144.99;100.00;52350.25;5063025;28;20273;-77
2021/09/03 04:57:40;;;;;;;;;;;;;;;-144.99;100.00;52354.34;5061844;28;19924;-76
2021/09/03 05:00:08;;;;;;;;;;;;;;;-144.99;100.00;52370.63;5062908;28;20393;-74
2021/09/03 05:02:34;;;;;;;;;;;;;;;-144.99;100.00;52301.34;5086617;22;20016;-78
2021/09/03 05:05:02;;;;;;;;;;;;;;;-144.99;100.00;52350.25;5073533;28;20030;-76
2021/09/03 05:07:28;;;;;;;;;;;;;;;-144.99;100.00;52374.72;5073712;28;19972;-78
2021/09/03 05:09:55;;;;;;;;;;;;;;;-144.99;100.00;52378.78;5069608;28;20425;-77
2021/09/03 05:12:21;;;;;;;;;;;;;;;-144.99;100.00;52358.41;5072215;28;19997;-77
2021/09/03 05:14:47;;;;;;;;;;;;;;;-144.99;100.00;52356.38;5069034;28;19987;-74
2021/09/03 05:17:13;;;;;;;;;;;;;;;-144.99;100.00;52333.94;5072465;28;19983;-77
2021/09/03 05:19:40;;;;;;;;;;;;;;;-144.99;100.00;52313.56;5070907;28;19981;-77
2021/09/03 05:22:08;;;;;;;;;;;;;;;-144.99;100.00;52309.50;5071455;28;19992;-76
2021/09/03 05:24:34;;;;;;;;;;;;;;;-144.99;100.00;52325.81;5070141;28;20461;-74
2021/09/03 05:27:00;;;;;;;;;;;;;;;-144.99;100.00;52366.56;5075667;28;19985;-78
2021/09/03 05:29:27;;;;;;;;;;;;;;;-144.99;100.00;52342.09;5071043;28;20389;-78
2021/09/03 05:31:53;;;;;;;;;;;;;;;-144.99;100.00;52338.03;5067509;28;19992;-79
2021/09/03 05:34:19;;;;;;;;;;;;;;;-144.99;100.00;52366.56;5079439;28;19998;-78
2021/09/03 05:36:46;;;;;;;;;;;;;;;-144.99;100.00;52354.34;5076831;28;19987;-78
2021/09/03 05:39:13;;;;;;;;;;;;;;;-144.99;100.00;52305.41;5069091;28;19973;-76
2021/09/03 05:41:40;;;;;;;;;;;;;;;-144.99;100.00;52342.09;5068396;28;19981;-77
2021/09/03 05:44:06;;;;;;;;;;;;;;;-144.99;100.00;52366.56;5070400;28;19996;-77
2021/09/03 05:46:32;;;;;;;;;;;;;;;-144.99;100.00;52344.16;5069765;28;20250;-77
2021/09/03 05:48:58;;;;;;;;;;;;;;;-144.99;100.00;52346.19;5074443;28;19977;-80
2021/09/03 05:51:25;;;;;;;;;;;;;;;-144.99;100.00;52323.75;5078204;28;19984;-76
2021/09/03 05:53:51;;;;;;;;;;;;;;;-144.99;100.00;52333.94;5082588;28;19999;-76
2021/09/03 05:56:19;;;;;;;;;;;;;;;-144.99;100.00;52366.56;5074556;28;19976;-76
2021/09/03 05:58:45;;;;;;;;;;;;;;;-144.99;100.00;52325.81;5069106;28;19977;-75
2021/09/03 06:01:11;;;;;;;;;;;;;;;-144.99;100.00;52354.34;5075179;28;20420;-76
2021/09/03 06:03:38;;;;;;;;;;;;;;;-144.99;100.00;52313.56;5060122;28;19997;-75
2021/09/03 06:06:04;;;;;;;;;;;;;;;-144.99;100.00;52329.88;5059526;28;20000;-75
2021/09/03 06:08:30;;;;;;;;;;;;;;;-144.99;100.00;52331.91;5064662;28;19981;-75
2021/09/03 06:10:56;;;;;;;;;;;;;;;-144.99;100.00;52342.09;5070763;28;19991;-72
2021/09/03 06:13:24;;;;;;;;;;;;;;;-144.99;100.00;52301.34;5072986;28;20001;-76
2021/09/03 06:15:50;;;;;;;;;;;;;;;-144.99;99.97;52305.41;5073475;28;19998;-76
2021/09/03 06:18:17;;;;;;;;;;;;;;;-144.99;99.36;52289.13;5075974;28;20004;-78
2021/09/03 06:20:43;;;;;;;;;;;;;;;-144.99;99.51;52338.03;5073903;28;20205;-75
2021/09/03 06:23:09;;;;;;;;;;;;;;;-144.99;99.78;52354.34;5074934;28;19977;-77
2021/09/03 06:25:36;;;;;;;;;;;;;;;-144.99;99.75;52338.03;5079950;28;19987;-78
2021/09/03 06:28:02;;;;;;;;;;;;;;;-144.99;99.67;52323.75;5079323;28;19985;-78
2021/09/03 06:30:30;;;;;;;;;;;;;;;-144.99;100.00;52374.72;5078739;28;19979;-78
2021/09/03 06:32:56;;;;;;;;;;;;;;;-144.99;99.48;52305.41;5077916;28;19997;-78
2021/09/03 06:35:23;;;;;;;;;;;;;;;-144.99;99.08;52346.19;5088537;28;20361;-75
2021/09/03 06:37:49;;;;;;;;;;;;;;;-144.99;98.72;52329.88;5084519;28;20438;-75
2021/09/03 06:40:16;;;;;;;;;;;;;;;-144.99;98.52;52325.81;5082498;28;19977;-79
2021/09/03 06:42:42;;;;;;;;;;;;;;;-144.99;97.60;52358.41;5077692;28;20004;-80
2021/09/03 06:45:11;;;;;;;;;;;;;;;-144.99;97.67;52313.56;5075328;28;19979;-81
2021/09/03 06:47:38;;;;;;;;;;;;;;;-144.99;97.06;52309.50;5061823;28;19986;-78
2021/09/03 06:50:06;;;;;;;;;;;;;;;-144.99;97.22;52305.41;5076193;28;20035;-78
2021/09/03 06:52:32;;;;;;;;;;;;;;;-144.99;96.40;52338.03;5071708;28;19993;-78
2021/09/03 06:54:59;;;;;;;;;;;;;;;-144.99;94.86;52329.88;5064237;28;19977;-77
2021/09/03 06:57:26;;;;;;;;;;;;;;;-144.99;94.89;52344.16;5075423;28;19980;-79
2021/09/03 06:59:52;;;;;;;;;;;;;;;-144.99;93.94;52301.34;5071714;28;19977;-73
2021/09/03 07:02:19;;;;;;;;;;;;;;;-144.99;93.97;52338.03;5068911;28;20351;-74
2021/09/03 07:04:46;;;;;;;;;;;;;;;-144.99;93.30;52327.84;5064507;28;19994;-71
2021/09/03 07:07:12;;;;;;;;;;;;;;;-144.99;92.42;52319.69;5062180;28;19980;-72
2021/09/03 07:09:39;;;;;;;;;;;;;;;-144.99;92.91;52346.19;5066895;28;19984;-73
2021/09/03 07:12:05;;;;;;;;;;;;;;;-144.99;92.12;52289.13;5059848;28;19996;-76
2021/09/03 07:14:32;;;;;;;;;;;;;;;-144.99;91.28;52309.50;5065399;28;20233;-72
2021/09/03 07:16:58;;;;;;;;;;;;;;;-144.99;91.19;52313.56;5069036;28;19976;-72
2021/09/03 07:19:24;;;;;;;;;;;;;;;-144.99;90.95;52289.13;5075704;28;19971;-78
2021/09/03 07:21:52;;;;;;;;;;;;;;;-144.99;90.43;52264.66;5069409;28;20685;-74
2021/09/03 07:24:18;;;;;;;;;;;;;;;-144.99;90.25;52309.50;5066497;28;19995;-73
2021/09/03 07:26:44;;;;;;;;;;;;;;;-144.99;89.74;52340.06;5062953;28;19977;-73
2021/09/03 07:29:11;;;;;;;;;;;;;;;-144.99;88.78;52299.31;5063250;28;19924;-75
2021/09/03 07:31:37;;;;;;;;;;;;;;;-144.99;86.57;52313.56;5061536;28;19972;-76
2021/09/03 07:34:03;;;;;;;;;;;;;;;-144.99;86.34;52227.97;5069354;28;19991;-77
2021/09/03 07:36:30;;;;;;;;;;;;;;;-144.99;85.20;52285.03;5071718;28;19983;-77
2021/09/03 07:38:57;;;;;;;;;;;;;;;-144.99;84.84;52268.72;5078657;28;20460;-75
2021/09/03 07:41:24;;;;;;;;;;;;;;;-144.99;84.64;52301.34;5078788;28;20259;-76
2021/09/03 07:43:50;;;;;;;;;;;;;;;-144.99;83.92;52309.50;5077145;28;20057;-76
2021/09/03 07:46:16;;;;;;;;;;;;;;;-144.99;82.74;52280.97;5075374;28;19976;-76
2021/09/03 07:48:43;;;;;;;;;;;;;;;-144.99;81.86;52280.97;5065054;28;19935;-78
2021/09/03 07:51:09;;;;;;;;;;;;;;;-144.99;82.30;52293.19;5066587;28;20061;-75
2021/09/03 07:53:36;;;;;;;;;;;;;;;-144.99;82.39;52289.13;5067148;28;19996;-78
2021/09/03 07:56:04;;;;;;;;;;;;;;;-144.99;81.74;52289.13;5067871;28;19985;-77
2021/09/03 07:58:30;;;;;;;;;;;;;;;-144.99;82.30;52272.81;5067088;28;20011;-77
2021/09/03 08:00:56;;;;;;;;;;;;;;;-144.99;82.16;52289.13;5060668;28;19977;-78
2021/09/03 08:03:23;;;;;;;;;;;;;;;-144.99;82.11;52270.78;5054122;28;20000;-75
2021/09/03 08:05:49;;;;;;;;;;;;;;;-144.99;82.41;52301.34;5054499;28;19976;-74
2021/09/03 08:08:16;;;;;;;;;;;;;;;-144.99;82.20;52321.72;5064139;28;20440;-76
2021/09/03 08:10:42;;;;;;;;;;;;;;;-144.99;81.66;52287.06;5056409;28;20026;-75
2021/09/03 08:13:11;;;;;;;;;;;;;;;-144.99;81.07;52268.72;5057923;28;19992;-78
2021/09/03 08:15:38;;;;;;;;;;;;;;;-144.99;80.87;52297.25;5063143;28;19929;-77
2021/09/03 08:18:05;;;;;;;;;;;;;;;-144.99;80.87;52256.50;5064602;28;19977;-77
2021/09/03 08:20:32;;;;;;;;;;;;;;;-144.99;81.10;52317.66;5067842;28;19987;-77
2021/09/03 08:22:58;;;;;;;;;;;;;;;-144.99;80.50;52280.97;5069521;28;20394;-77
2021/09/03 08:25:25;;;;;;;;;;;;;;;-144.99;79.57;52293.19;5062732;28;19960;-77
2021/09/03 08:27:51;;;;;;;;;;;;;;;-144.99;79.29;52293.19;5067465;28;20241;-77
2021/09/03 08:30:19;;;;;;;;;;;;;;;-144.99;79.67;52293.19;5059661;28;19975;-78
2021/09/03 08:32:46;;;;;;;;;;;;;;;-144.99;78.93;52280.97;5058487;28;20002;-76
2021/09/03 08:35:12;;;;;;;;;;;;;;;-144.99;77.98;52301.34;5066685;28;19978;-76
2021/09/03 08:37:40;;;;;;;;;;;;;;;-144.99;76.40;52256.50;5065802;28;19987;-78
2021/09/03 08:40:07;;;;;;;;;;;;;;;-144.99;75.99;52260.56;5066157;28;19983;-76
2021/09/03 08:42:33;;;;;;;;;;;;;;;-144.99;74.73;52217.78;5067169;28;19943;-75
2021/09/03 08:45:00;;;;;;;;;;;;;;;-144.99;72.45;52248.34;5052745;28;20053;-77
2021/09/03 08:47:28;;;;;;;;;;;;;;;-144.99;71.33;52268.72;5063417;28;19945;-77
2021/09/03 08:49:54;;;;;;;;;;;;;;;-144.99;71.05;52280.97;5065696;28;20148;-75
2021/09/03 08:52:21;;;;;;;;;;;;;;;-144.99;70.92;52203.50;5064995;28;19992;-77
2021/09/03 08:54:47;;;;;;;;;;;;;;;-144.99;70.16;52244.28;5066404;28;19968;-76
2021/09/03 08:57:14;;;;;;;;;;;;;;;-144.99;69.75;52260.56;5066916;28;19956;-77
2021/09/03 08:59:40;;;;;;;;;;;;;;;-144.99;68.82;52236.13;5066444;28;19979;-76
2021/09/03 09:02:10;;;;;;;;;;;;;;;-144.99;68.18;52223.88;5066212;28;19994;-77
2021/09/03 09:04:38;;;;;;;;;;;;;;;-144.99;69.59;52256.50;5065538;28;19988;-77
2021/09/03 09:07:05;;;;;;;;;;;;;;;-144.99;69.28;52276.88;5060984;28;19987;-77
2021/09/03 09:09:32;;;;;;;;;;;;;;;-144.99;69.77;52268.72;5060794;28;19982;-76
2021/09/03 09:12:01;;;;;;;;;;;;;;;-144.99;69.56;52260.56;5059460;28;20064;-78
2021/09/03 09:14:28;;;;;;;;;;;;;;;-144.99;68.88;52232.03;5067728;28;20465;-79
2021/09/03 09:17:00;;;;;;;;;;;;;;;-144.99;68.53;52215.75;4365226;28;10020736;-78
2021/09/03 09:19:27;;;;;;;;;;;;;;;-144.99;67.92;52170.91;5050720;28;19990;-78
2021/09/03 09:21:57;;;;;;;;;;;;;;;-144.99;65.45;52248.34;5063265;28;19985;-77
2021/09/03 09:24:23;;;;;;;;;;;;;;;-144.99;64.20;52191.28;5064908;28;19994;-76
2021/09/03 09:26:51;;;;;;;;;;;;;;;-144.99;63.91;52187.19;5064449;28;19978;-78
2021/09/03 09:29:18;;;;;;;;;;;;;;;-144.99;62.91;52205.53;5060898;28;19975;-78
2021/09/03 09:31:45;;;;;;;;;;;;;;;-144.99;62.90;52203.50;5062775;28;19948;-76
2021/09/03 09:34:18;;;;;;;;;;;;;;;-144.99;61.37;52187.19;5064389;28;19976;-78
2021/09/03 09:36:45;;;;;;;;;;;;;;;-144.99;61.81;52179.06;5063675;28;19986;-75
2021/09/03 09:39:13;;;;;;;;;;;;;;;-144.99;61.50;52203.50;5062820;28;20023;-78
2021/09/03 09:41:40;;;;;;;;;;;;;;;-144.99;61.47;52197.41;5063780;28;19967;-79
2021/09/03 09:44:06;;;;;;;;;;;;;;;-144.99;61.20;52166.81;5062578;28;19973;-77
2021/09/03 09:46:33;;;;;;;;;;;;;;;-144.99;61.05;52187.19;5063166;28;19969;-77
2021/09/03 09:49:02;;;;;;;;;;;;;;;-144.99;59.21;52177.00;5063585;28;19974;-76
2021/09/03 09:51:31;;;;;;;;;;;;;;;-144.99;58.09;52174.97;5062641;28;19962;-78
2021/09/03 09:53:58;;;;;;;;;;;;;;;-144.99;60.53;52207.59;5063075;28;19964;-77
2021/09/03 09:56:26;;;;;;;;;;;;;;;-144.99;59.72;52170.91;5064082;28;19950;-76
2021/09/03 09:58:54;;;;;;;;;;;;;;;-144.99;58.61;52193.31;5063041;28;20437;-78
2021/09/03 10:01:21;;;;;;;;;;;;;;;-144.99;57.91;52154.59;5066421;28;19940;-79
2021/09/03 10:03:48;;;;;;;;;;;;;;;-144.99;56.18;52162.75;5066276;28;19987;-79
2021/09/03 10:06:16;;;;;;;;;;;;;;;-144.99;55.78;52174.97;5062497;28;19961;-79
2021/09/03 10:08:42;;;;;;;;;;;;;;;-144.99;54.91;52187.19;5050801;28;19943;-80
2021/09/03 10:11:09;;;;;;;;;;;;;;;-144.99;56.15;52162.75;5056959;28;19954;-80
2021/09/03 10:13:37;;;;;;;;;;;;;;;-144.99;56.62;52166.81;5057736;28;20450;-80
2021/09/03 10:16:03;;;;;;;;;;;;;;;-144.99;56.82;52162.75;5055656;28;20109;-77
2021/09/03 10:18:30;;;;;;;;;;;;;;;-144.99;56.47;52223.88;5059050;28;20036;-80
2021/09/03 10:20:58;;;;;;;;;;;;;;;-144.99;56.93;52174.97;5054104;28;19950;-78
2021/09/03 10:23:43;;;;;;;;;;;;;;;-144.99;57.67;52213.69;5058695;28;19931;-78
2021/09/03 10:26:09;;;;;;;;;;;;;;;-144.99;58.21;52187.19;5063296;28;19987;-79
2021/09/03 10:28:37;;;;;;;;;;;;;;;-144.99;58.04;52162.75;5058476;28;19963;-80
2021/09/03 10:31:04;;;;;;;;;;;;;;;-144.99;57.78;52101.59;5055967;28;20110;-79
2021/09/03 10:33:34;;;;;;;;;;;;;;;-144.99;56.53;52138.28;5060720;28;20387;-79
2021/09/03 10:36:00;;;;;;;;;;;;;;;-144.99;56.52;52179.06;5063822;28;20424;-78
2021/09/03 10:38:27;;;;;;;;;;;;;;;-144.99;56.62;52199.44;5064430;28;19974;-81
2021/09/03 10:40:53;;;;;;;;;;;;;;;-144.99;56.99;52183.13;5065162;28;20365;-79
2021/09/03 10:43:39;;;;;;;;;;;;;;;-144.99;58.27;52203.50;5064137;28;19932;-80
2021/09/03 10:46:07;;;;;;;;;;;;;;;-144.99;58.99;52097.53;5061138;28;20414;-79
2021/09/03 10:48:33;;;;;;;;;;;;;;;-144.99;56.17;52093.44;5065183;28;19968;-77
2021/09/03 10:51:00;;;;;;;;;;;;;;;-144.99;54.90;52152.56;5065075;28;19975;-80
2021/09/03 10:53:28;;;;;;;;;;;;;;;-144.99;54.25;52174.97;5063200;28;19966;-79
2021/09/03 10:56:02;;;;;;;;;;;;;;;-144.99;53.20;52158.66;5061191;28;20008;-79
2021/09/03 10:58:32;;;;;;;;;;;;;;;-144.99;53.71;52011.94;5065865;28;19976;-78
2021/09/03 11:01:20;;;;;;;;;;;;;;;-144.99;53.74;52211.66;5051202;28;19946;-79
2021/09/03 11:03:49;;;;;;;;;;;;;;;-144.99;56.54;52215.75;5063491;22;20341;-73
2021/09/03 11:06:15;;;;;;;;;;;;;;;-144.99;57.42;52195.34;5058245;28;20383;-77
2021/09/03 11:08:43;;;;;;;;;;;;;;;-144.99;57.10;52158.66;5066244;28;19962;-77
2021/09/03 11:11:21;;;;;;;;;;;;;;;-144.99;55.02;52024.16;5064003;28;19947;-76
2021/09/03 11:13:48;;;;;;;;;;;;;;;-144.99;52.81;52128.09;5061537;28;19944;-75
2021/09/03 11:16:29;;;;;;;;;;;;;;;-144.99;54.07;52101.59;5061947;28;19948;-76
2021/09/03 11:19:04;;;;;;;;;;;;;;;-144.99;53.50;51983.41;5059473;28;20349;-75
2021/09/03 11:21:31;;;;;;;;;;;;;;;-144.99;50.66;52101.59;5054068;28;19951;-75
2021/09/03 11:23:58;;;;;;;;;;;;;;;-144.99;50.59;52079.19;5061505;28;19952;-77
2021/09/03 11:26:26;;;;;;;;;;;;;;;-144.99;49.58;52154.59;5061415;28;19965;-77
2021/09/03 11:28:52;;;;;;;;;;;;;;;-144.99;49.18;51987.47;5060590;28;19951;-76
2021/09/03 11:31:18;;;;;;;;;;;;;;;-144.99;47.99;52077.16;5082786;28;19935;-75
2021/09/03 11:33:45;;;;;;;;;;;;;;;-144.99;48.19;52069.00;5071184;28;20299;-76
2021/09/03 11:36:13;;;;;;;;;;;;;;;-144.99;47.62;51954.88;5061023;28;19959;-76
2021/09/03 11:38:40;;;;;;;;;;;;;;;-144.99;47.26;52077.16;5058073;28;19928;-75
2021/09/03 11:41:08;;;;;;;;;;;;;;;-144.99;47.02;51971.16;5054722;28;19928;-76
2021/09/03 11:43:34;;;;;;;;;;;;;;;-144.99;46.87;51977.28;5054613;28;20371;-78
2021/09/03 11:46:00;;;;;;;;;;;;;;;-144.99;48.29;51983.41;5052853;28;19958;-75
2021/09/03 11:48:27;;;;;;;;;;;;;;;-144.99;48.37;52071.03;5059143;28;19935;-79
2021/09/03 11:50:53;;;;;;;;;;;;;;;-144.99;48.01;52040.47;5059955;28;19962;-77
2021/09/03 11:53:25;;;;;;;;;;;;;;;-144.99;47.69;52113.84;5064819;28;20179;-77
2021/09/03 11:55:51;;;;;;;;;;;;;;;-144.99;48.28;52109.75;5074230;28;19976;-77
2021/09/03 11:58:18;;;;;;;;;;;;;;;-144.99;49.20;52101.59;5066332;28;19976;-75
2021/09/03 12:00:46;;;;;;;;;;;;;;;-144.99;48.89;52130.13;5064974;28;19932;-77
2021/09/03 12:03:14;;;;;;;;;;;;;;;-144.99;48.39;52162.75;5072754;28;19954;-76
2021/09/03 12:05:41;;;;;;;;;;;;;;;-144.99;48.89;52003.78;5064526;28;19967;-79
2021/09/03 12:08:09;;;;;;;;;;;;;;;-144.99;49.54;51958.94;5078317;28;20026;-79
2021/09/03 12:10:38;;;;;;;;;;;;;;;-144.99;49.97;52166.81;5075835;28;19971;-76
2021/09/03 12:13:05;;;;;;;;;;;;;;;-144.99;49.15;52069.00;5091077;28;19928;-79
2021/09/03 12:15:32;;;;;;;;;;;;;;;-144.99;48.37;52113.84;5091349;28;20019;-80
2021/09/03 12:17:58;;;;;;;;;;;;;;;-144.99;48.74;52158.66;5092805;28;19981;-79
2021/09/03 12:20:25;;;;;;;;;;;;;;;-144.99;49.04;52121.97;5090363;28;19913;-79
2021/09/03 12:22:52;;;;;;;;;;;;;;;-144.99;48.60;52048.63;5089043;28;19912;-80